createdAt,value
2017-05-13T00:00:44.241Z,99.99
2017-05-13T00:01:43.959Z,99.99
2017-05-13T00:02:44.284Z,99.99
2017-05-13T00:03:44.308Z,99.99
2017-05-13T00:04:44.332Z,99.99
2017-05-13T00:05:44.358Z,99.99
2017-05-13T00:06:44.379Z,99.99
2017-05-13T00:07:44.401Z,99.99
2017-05-13T00:08:44.425Z,99.99
2017-05-13T00:10:44.478Z,99.99
2017-05-13T00:11:44.500Z,99.99
2017-05-13T00:12:44.519Z,99.99
2017-05-13T00:13:59.161Z,99.99
2017-05-13T00:14:44.567Z,99.99
2017-05-13T00:15:44.588Z,99.99
2017-05-13T00:16:44.611Z,99.99
2017-05-13T00:17:44.637Z,99.99
2017-05-13T00:18:44.658Z,99.99
2017-05-13T00:19:44.684Z,99.99
2017-05-13T00:20:44.705Z,99.99
2017-05-13T00:21:44.729Z,99.99
2017-05-13T00:22:44.754Z,99.99
2017-05-13T00:26:44.846Z,99.99
2017-05-13T00:27:44.870Z,99.99
2017-05-13T00:28:44.894Z,99.99
2017-05-13T00:29:59.532Z,99.99
2017-05-13T00:30:44.940Z,99.99
2017-05-13T00:31:44.963Z,99.99
2017-05-13T00:32:44.986Z,99.99
2017-05-13T00:33:45.008Z,99.99
2017-05-13T00:34:45.031Z,99.99
2017-05-13T00:35:45.055Z,99.99
2017-05-13T00:36:45.080Z,99.99
2017-05-13T00:38:45.126Z,99.99
2017-05-13T00:39:45.149Z,99.99
2017-05-13T00:40:45.171Z,99.99
2017-05-13T00:42:45.220Z,99.99
2017-05-13T00:43:45.244Z,99.99
2017-05-13T00:44:45.265Z,99.99
2017-05-13T00:45:59.904Z,99.99
2017-05-13T00:46:45.312Z,99.99
2017-05-13T00:47:45.337Z,99.99
2017-05-13T00:48:45.366Z,99.99
2017-05-13T00:49:45.385Z,99.99
2017-05-13T00:50:45.404Z,99.99
2017-05-13T00:51:45.442Z,99.99
2017-05-13T00:52:45.461Z,99.99
2017-05-13T00:53:45.486Z,99.99
2017-05-13T00:54:45.498Z,99.99
2017-05-13T00:55:45.530Z,99.99
2017-05-13T00:56:45.560Z,99.99
2017-05-13T00:57:45.577Z,99.99
2017-05-13T00:58:45.599Z,99.99
2017-05-13T00:59:45.617Z,99.99
2017-05-13T01:01:00.254Z,99.99
2017-05-13T01:01:45.660Z,99.99
2017-05-13T01:02:45.682Z,99.99
2017-05-13T01:03:45.705Z,99.99
2017-05-13T01:04:45.735Z,99.99
2017-05-13T01:05:45.752Z,99.99
2017-05-13T01:06:45.786Z,99.99
2017-05-13T01:07:45.799Z,99.99
2017-05-13T01:08:45.822Z,99.99
2017-05-13T01:09:45.844Z,99.99
2017-05-13T01:10:45.869Z,99.99
2017-05-13T01:11:45.891Z,99.99
2017-05-13T01:12:45.924Z,99.99
2017-05-13T01:13:45.936Z,99.99
2017-05-13T01:14:45.960Z,99.99
2017-05-13T01:15:45.984Z,99.99
2017-05-13T01:16:46.006Z,99.99
2017-05-13T01:17:46.030Z,99.99
2017-05-13T01:18:46.053Z,99.99
2017-05-13T01:19:46.079Z,99.99
2017-05-13T01:20:46.098Z,99.99
2017-05-13T01:21:45.820Z,99.99
2017-05-13T01:22:46.146Z,99.99
2017-05-13T01:23:46.171Z,99.99
2017-05-13T01:24:45.888Z,99.99
2017-05-13T01:26:46.237Z,99.99
2017-05-13T01:27:46.262Z,99.99
2017-05-13T01:28:46.288Z,99.99
2017-05-13T01:29:46.004Z,99.99
2017-05-13T01:30:46.329Z,99.99
2017-05-13T01:31:46.353Z,99.99
2017-05-13T01:33:00.991Z,99.99
2017-05-13T01:33:46.399Z,99.99
2017-05-13T01:34:46.423Z,99.99
2017-05-13T01:35:46.444Z,99.99
2017-05-13T01:36:46.468Z,99.99
2017-05-13T01:37:46.495Z,99.99
2017-05-13T01:38:46.513Z,99.99
2017-05-13T01:39:46.538Z,99.99
2017-05-13T01:41:46.583Z,99.99
2017-05-13T01:42:46.607Z,99.99
2017-05-13T01:43:46.627Z,99.99
2017-05-13T01:44:46.654Z,99.99
2017-05-13T01:46:46.697Z,99.99
2017-05-13T01:47:46.722Z,99.99
2017-05-13T01:49:01.360Z,99.99
2017-05-13T01:49:46.774Z,99.99
2017-05-13T01:50:46.789Z,99.99
2017-05-13T01:51:46.818Z,99.99
2017-05-13T01:52:46.835Z,99.99
2017-05-13T01:53:46.857Z,99.99
2017-05-13T01:54:46.879Z,99.99
2017-05-13T01:55:46.903Z,99.99
2017-05-13T01:56:46.926Z,99.99
2017-05-13T01:57:46.948Z,99.99
2017-05-13T01:58:46.975Z,99.71
2017-05-13T01:59:46.995Z,99.62
2017-05-13T02:00:47.018Z,99.43
2017-05-13T02:01:47.041Z,99.62
2017-05-13T02:02:47.066Z,99.14
2017-05-13T02:03:46.784Z,98.75
2017-05-13T02:05:01.727Z,98.57
2017-05-13T02:05:46.829Z,98.08
2017-05-13T02:06:47.155Z,97.99
2017-05-13T02:07:47.179Z,97.23
2017-05-13T02:08:47.201Z,96.37
2017-05-13T02:09:47.225Z,96.32
2017-05-13T02:10:47.248Z,95.84
2017-05-13T02:11:47.271Z,95.61
2017-05-13T02:12:47.293Z,94.93
2017-05-13T02:13:47.319Z,94.12
2017-05-13T02:14:47.344Z,94.51
2017-05-13T02:15:47.363Z,93.55
2017-05-13T02:16:47.384Z,93.26
2017-05-13T02:17:47.409Z,92.69
2017-05-13T02:18:47.432Z,92.59
2017-05-13T02:19:47.454Z,92.59
2017-05-13T02:21:02.094Z,91.93
2017-05-13T02:21:47.500Z,92.4
2017-05-13T02:22:47.564Z,92.3
2017-05-13T02:23:47.549Z,92.69
2017-05-13T02:24:47.570Z,92.88
2017-05-13T02:25:47.592Z,92.59
2017-05-13T02:26:47.618Z,92.11
2017-05-13T02:27:47.637Z,91.54
2017-05-13T02:28:47.664Z,91.54
2017-05-13T02:29:47.687Z,91.54
2017-05-13T02:30:47.749Z,91.06
2017-05-13T02:32:47.771Z,90.88
2017-05-13T02:33:47.776Z,89.92
2017-05-13T02:34:47.802Z,89.82
2017-05-13T02:36:02.439Z,90.11
2017-05-13T02:36:47.847Z,89.82
2017-05-13T02:37:47.869Z,90.2
2017-05-13T02:38:47.891Z,89.92
2017-05-13T02:39:47.914Z,89.92
2017-05-13T02:40:47.939Z,89.73
2017-05-13T02:41:47.960Z,89.92
2017-05-13T02:42:47.680Z,89.82
2017-05-13T02:43:48.008Z,90.2
2017-05-13T02:44:48.029Z,89.82
2017-05-13T02:45:48.055Z,89.82
2017-05-13T02:46:48.076Z,89.82
2017-05-13T02:47:48.098Z,90.01
2017-05-13T02:48:48.128Z,90.49
2017-05-13T02:49:47.841Z,90.78
2017-05-13T02:50:48.167Z,90.59
2017-05-13T02:51:48.192Z,90.97
2017-05-13T02:52:48.217Z,91.16
2017-05-13T02:53:48.242Z,91.64
2017-05-13T02:54:47.957Z,92.02
2017-05-13T02:55:48.283Z,92.69
2017-05-13T02:56:48.306Z,92.69
2017-05-13T02:57:48.332Z,93.07
2017-05-13T02:58:48.353Z,93.45
2017-05-13T03:00:48.399Z,93.65
2017-05-13T03:01:48.421Z,93.93
2017-05-13T03:02:48.139Z,94.36
2017-05-13T03:04:48.493Z,94.17
2017-05-13T03:05:48.519Z,94.65
2017-05-13T03:06:48.534Z,93.79
2017-05-13T03:08:03.176Z,93.88
2017-05-13T03:08:48.582Z,94.27
2017-05-13T03:09:48.605Z,93.79
2017-05-13T03:10:48.628Z,93.98
2017-05-13T03:11:48.651Z,94.65
2017-05-13T03:12:48.673Z,94.27
2017-05-13T03:13:48.700Z,94.74
2017-05-13T03:14:48.722Z,94.65
2017-05-13T03:15:48.745Z,94.74
2017-05-13T03:17:48.789Z,93.88
2017-05-13T03:18:48.809Z,93.79
2017-05-13T03:19:48.834Z,93.88
2017-05-13T03:20:48.860Z,94.07
2017-05-13T03:21:48.879Z,94.17
2017-05-13T03:22:48.904Z,93.88
2017-05-13T03:24:03.542Z,94.27
2017-05-13T03:24:48.957Z,93.7
2017-05-13T03:25:49.013Z,93.98
2017-05-13T03:27:03.610Z,93.6
2017-05-13T03:27:49.016Z,93.7
2017-05-13T03:28:49.040Z,93.5
2017-05-13T03:29:49.063Z,93.12
2017-05-13T03:30:49.086Z,93.12
2017-05-13T03:32:49.134Z,92.74
2017-05-13T03:33:49.156Z,92.64
2017-05-13T03:34:49.184Z,92.83
2017-05-13T03:35:48.900Z,92.55
2017-05-13T03:36:48.920Z,92.64
2017-05-13T03:37:49.248Z,93.02
2017-05-13T03:38:49.271Z,92.55
2017-05-13T03:40:03.909Z,92.64
2017-05-13T03:40:49.315Z,92.74
2017-05-13T03:41:49.341Z,92.5
2017-05-13T03:42:49.363Z,93.02
2017-05-13T03:43:49.383Z,92.83
2017-05-13T03:44:49.103Z,92.45
2017-05-13T03:45:49.430Z,92.64
2017-05-13T03:46:49.453Z,92.69
2017-05-13T03:47:49.481Z,92.07
2017-05-13T03:48:49.502Z,91.97
2017-05-13T03:49:49.522Z,92.3
2017-05-13T03:51:49.568Z,91.83
2017-05-13T03:52:49.594Z,92.11
2017-05-13T03:53:49.616Z,91.93
2017-05-13T03:54:49.639Z,91.83
2017-05-13T03:56:04.276Z,92.79
2017-05-13T03:57:49.709Z,92.4
2017-05-13T03:58:49.732Z,93.07
2017-05-13T03:59:49.750Z,92.69
2017-05-13T04:00:49.774Z,92.69
2017-05-13T04:01:49.795Z,92.88
2017-05-13T04:02:49.822Z,92.97
2017-05-13T04:03:49.844Z,93.65
2017-05-13T04:04:49.867Z,93.55
2017-05-13T04:05:49.889Z,93.93
2017-05-13T04:06:49.917Z,93.55
2017-05-13T04:07:49.939Z,93.36
2017-05-13T04:08:49.959Z,93.26
2017-05-13T04:09:49.981Z,93.74
2017-05-13T04:11:04.621Z,94.02
2017-05-13T04:11:50.029Z,93.74
2017-05-13T04:12:50.053Z,94.12
2017-05-13T04:13:50.075Z,94.12
2017-05-13T04:14:50.096Z,94.02
2017-05-13T04:15:50.120Z,94.12
2017-05-13T04:16:50.141Z,93.26
2017-05-13T04:17:50.172Z,93.36
2017-05-13T04:18:49.885Z,94.02
2017-05-13T04:19:49.906Z,94.31
2017-05-13T04:20:49.929Z,93.84
2017-05-13T04:21:50.257Z,93.74
2017-05-13T04:22:50.281Z,93.55
2017-05-13T04:24:50.326Z,94.02
2017-05-13T04:25:50.348Z,93.45
2017-05-13T04:26:50.373Z,93.55
2017-05-13T04:27:50.399Z,94.02
2017-05-13T04:28:50.419Z,93.55
2017-05-13T04:29:50.447Z,93.93
2017-05-13T04:30:50.462Z,93.45
2017-05-13T04:31:50.485Z,94.12
2017-05-13T04:32:50.509Z,93.84
2017-05-13T04:33:50.232Z,93.74
2017-05-13T04:34:50.251Z,93.45
2017-05-13T04:35:50.578Z,93.36
2017-05-13T04:36:50.600Z,93.65
2017-05-13T04:37:50.624Z,93.65
2017-05-13T04:38:50.647Z,93.74
2017-05-13T04:39:50.670Z,94.12
2017-05-13T04:40:50.694Z,93.93
2017-05-13T04:41:50.716Z,93.65
2017-05-13T04:43:05.355Z,93.45
2017-05-13T04:43:50.763Z,92.97
2017-05-13T04:44:50.788Z,93.26
2017-05-13T04:45:50.807Z,93.26
2017-05-13T04:46:50.830Z,93.65
2017-05-13T04:47:50.854Z,93.65
2017-05-13T04:48:50.875Z,93.55
2017-05-13T04:49:50.899Z,93.5
2017-05-13T04:50:50.925Z,93.6
2017-05-13T04:51:50.946Z,93.98
2017-05-13T04:52:50.967Z,93.79
2017-05-13T04:53:50.990Z,93.69
2017-05-13T04:54:51.013Z,94.36
2017-05-13T04:55:51.038Z,94.17
2017-05-13T04:56:51.061Z,94.36
2017-05-13T04:57:51.085Z,94.84
2017-05-13T04:59:05.724Z,94.65
2017-05-13T04:59:51.132Z,94.74
2017-05-13T05:00:51.153Z,94.36
2017-05-13T05:01:51.174Z,94.26
2017-05-13T05:02:50.905Z,94.65
2017-05-13T05:03:51.221Z,95.12
2017-05-13T05:04:51.246Z,95.61
2017-05-13T05:05:51.268Z,95.12
2017-05-13T05:06:51.290Z,94.55
2017-05-13T05:07:51.320Z,95.32
2017-05-13T05:08:51.037Z,95.32
2017-05-13T05:09:51.059Z,95.03
2017-05-13T05:10:51.388Z,95.79
2017-05-13T05:11:51.408Z,95.61
2017-05-13T05:12:51.429Z,95.61
2017-05-13T05:13:51.454Z,95.79
2017-05-13T05:15:06.092Z,96.47
2017-05-13T05:15:51.498Z,96.94
2017-05-13T05:16:51.522Z,97.23
2017-05-13T05:17:51.546Z,98.09
2017-05-13T05:18:51.570Z,98.66
2017-05-13T05:19:51.591Z,98.99
2017-05-13T05:20:51.616Z,99.19
2017-05-13T05:21:51.638Z,99.85
2017-05-13T05:22:51.662Z,99.99
2017-05-13T05:24:51.706Z,99.99
2017-05-13T05:25:51.729Z,99.99
2017-05-13T05:26:51.752Z,99.99
2017-05-13T05:27:51.781Z,99.99
2017-05-13T05:28:51.809Z,99.99
2017-05-13T05:29:51.826Z,99.99
2017-05-13T05:31:06.461Z,99.99
2017-05-13T05:31:51.869Z,99.99
2017-05-13T05:32:51.896Z,99.99
2017-05-13T05:33:51.914Z,99.99
2017-05-13T05:34:51.938Z,99.99
2017-05-13T05:35:51.962Z,99.99
2017-05-13T05:36:51.981Z,99.99
2017-05-13T05:37:52.005Z,99.99
2017-05-13T05:38:52.076Z,99.99
2017-05-13T05:39:52.052Z,99.99
2017-05-13T05:40:52.074Z,99.99
2017-05-13T05:43:52.144Z,99.99
2017-05-13T05:44:52.167Z,99.99
2017-05-13T05:46:06.807Z,99.99
2017-05-13T05:46:52.216Z,99.99
2017-05-13T05:47:52.236Z,99.99
2017-05-13T05:48:52.260Z,99.99
2017-05-13T05:49:52.283Z,99.99
2017-05-13T05:50:52.002Z,99.99
2017-05-13T05:51:52.026Z,99.99
2017-05-13T05:52:52.049Z,99.99
2017-05-13T05:53:52.377Z,99.99
2017-05-13T05:54:52.397Z,99.99
2017-05-13T05:55:52.420Z,99.99
2017-05-13T05:56:52.444Z,99.99
2017-05-13T05:58:52.192Z,99.99
2017-05-13T05:59:52.512Z,99.99
2017-05-13T06:00:52.537Z,99.99
2017-05-13T06:01:52.559Z,99.99
2017-05-13T06:02:52.583Z,99.99
2017-05-13T06:03:52.605Z,99.99
2017-05-13T06:04:52.629Z,99.99
2017-05-13T06:05:52.651Z,99.99
2017-05-13T06:06:52.673Z,99.99
2017-05-13T06:07:52.698Z,99.99
2017-05-13T06:08:52.720Z,99.99
2017-05-13T06:09:52.742Z,99.99
2017-05-13T06:10:52.766Z,99.99
2017-05-13T06:11:52.790Z,99.99
2017-05-13T06:14:52.865Z,99.99
2017-05-13T06:15:52.881Z,99.99
2017-05-13T06:16:52.903Z,99.99
2017-05-13T06:18:07.544Z,99.99
2017-05-13T06:18:52.951Z,99.99
2017-05-13T06:19:52.976Z,99.99
2017-05-13T06:20:52.998Z,99.99
2017-05-13T06:21:53.019Z,99.99
2017-05-13T06:22:53.042Z,99.99
2017-05-13T06:23:53.065Z,99.81
2017-05-13T06:24:53.090Z,99.99
2017-05-13T06:25:53.114Z,99.99
2017-05-13T06:26:53.136Z,99.99
2017-05-13T06:27:53.158Z,99.99
2017-05-13T06:29:53.206Z,99.9
2017-05-13T06:30:53.229Z,99.33
2017-05-13T06:31:53.251Z,99.14
2017-05-13T06:32:53.274Z,99.52
2017-05-13T06:34:07.915Z,98.85
2017-05-13T06:34:53.325Z,99.04
2017-05-13T06:35:53.343Z,98.95
2017-05-13T06:36:53.063Z,98.66
2017-05-13T06:37:53.393Z,99.71
2017-05-13T06:38:53.414Z,99.48
2017-05-13T06:39:53.438Z,99.29
2017-05-13T06:40:53.461Z,99.29
2017-05-13T06:41:53.485Z,98.9
2017-05-13T06:42:53.507Z,98.81
2017-05-13T06:43:53.530Z,98.43
2017-05-13T06:45:53.584Z,98.61
2017-05-13T06:46:53.601Z,98.81
2017-05-13T06:47:53.624Z,98.24
2017-05-13T06:48:53.649Z,98.24
2017-05-13T06:50:08.286Z,98.04
2017-05-13T06:50:53.694Z,98.04
2017-05-13T06:51:53.719Z,98.04
2017-05-13T06:52:53.742Z,97.66
2017-05-13T06:53:53.764Z,97.52
2017-05-13T06:54:53.788Z,98.09
2017-05-13T06:55:53.555Z,97.71
2017-05-13T06:56:53.834Z,97.33
2017-05-13T06:57:53.858Z,97.42
2017-05-13T06:58:53.882Z,97.61
2017-05-13T06:59:53.905Z,97.23
2017-05-13T07:00:53.928Z,97.23
2017-05-13T07:01:53.952Z,97.42
2017-05-13T07:03:54.002Z,96.94
2017-05-13T07:04:54.024Z,97.23
2017-05-13T07:06:08.663Z,96.13
2017-05-13T07:06:54.071Z,95.84
2017-05-13T07:07:54.097Z,94.89
2017-05-13T07:08:54.117Z,95.46
2017-05-13T07:09:53.836Z,95.51
2017-05-13T07:10:54.166Z,95.89
2017-05-13T07:11:54.190Z,96.08
2017-05-13T07:12:54.215Z,96.7
2017-05-13T07:13:54.236Z,95.98
2017-05-13T07:14:54.259Z,96.32
2017-05-13T07:15:54.285Z,96.22
2017-05-13T07:16:54.311Z,95.94
2017-05-13T07:17:54.333Z,94.98
2017-05-13T07:18:54.356Z,95.75
2017-05-13T07:19:54.378Z,95.65
2017-05-13T07:21:09.021Z,94.89
2017-05-13T07:21:54.426Z,94.98
2017-05-13T07:22:54.452Z,94.79
2017-05-13T07:23:54.476Z,95.27
2017-05-13T07:24:54.499Z,94.45
2017-05-13T07:25:54.522Z,94.93
2017-05-13T07:26:54.545Z,95.7
2017-05-13T07:27:54.571Z,95.7
2017-05-13T07:28:54.595Z,93.98
2017-05-13T07:29:54.616Z,93.98
2017-05-13T07:30:54.642Z,94.84
2017-05-13T07:31:54.665Z,95.12
2017-05-13T07:32:54.691Z,94.45
2017-05-13T07:33:54.715Z,94.17
2017-05-13T07:34:54.739Z,94.55
2017-05-13T07:35:54.761Z,94.79
2017-05-13T07:36:54.784Z,95.07
2017-05-13T07:37:54.809Z,95.84
2017-05-13T07:38:54.834Z,95.46
2017-05-13T07:39:54.856Z,96.22
2017-05-13T07:40:54.885Z,95.84
2017-05-13T07:41:54.906Z,95.56
2017-05-13T07:42:54.625Z,95.36
2017-05-13T07:43:54.954Z,96.13
2017-05-13T07:44:54.977Z,96.61
2017-05-13T07:45:55.003Z,96.51
2017-05-13T07:46:55.025Z,96.51
2017-05-13T07:47:55.051Z,96.7
2017-05-13T07:48:55.073Z,96.61
2017-05-13T07:49:55.097Z,97.28
2017-05-13T07:50:55.121Z,98.05
2017-05-13T07:51:55.142Z,97.47
2017-05-13T07:53:09.785Z,97.71
2017-05-13T07:53:55.192Z,97.52
2017-05-13T07:54:55.218Z,97.71
2017-05-13T07:55:55.241Z,98.57
2017-05-13T07:56:55.265Z,97.9
2017-05-13T07:57:55.288Z,97.61
2017-05-13T07:58:55.312Z,97.23
2017-05-13T07:59:55.335Z,97.14
2017-05-13T08:00:55.360Z,97.42
2017-05-13T08:01:55.385Z,97.71
2017-05-13T08:02:55.408Z,98.05
2017-05-13T08:03:55.432Z,98.81
2017-05-13T08:05:55.482Z,98
2017-05-13T08:06:55.507Z,97.28
2017-05-13T08:07:55.528Z,97.85
2017-05-13T08:09:10.169Z,97.9
2017-05-13T08:09:55.577Z,98
2017-05-13T08:10:55.642Z,98.1
2017-05-13T08:11:55.625Z,98.28
2017-05-13T08:12:55.647Z,97.8
2017-05-13T08:13:55.671Z,96.94
2017-05-13T08:14:55.696Z,97.23
2017-05-13T08:15:55.719Z,97.61
2017-05-13T08:16:55.744Z,98
2017-05-13T08:17:55.774Z,97.9
2017-05-13T08:18:55.792Z,97.95
2017-05-13T08:19:55.816Z,98.19
2017-05-13T08:20:55.841Z,98.52
2017-05-13T08:22:55.887Z,98.47
2017-05-13T08:23:55.911Z,98.57
2017-05-13T08:25:10.552Z,98
2017-05-13T08:25:55.959Z,97.9
2017-05-13T08:26:55.985Z,98.1
2017-05-13T08:27:56.008Z,97.9
2017-05-13T08:28:56.031Z,98.19
2017-05-13T08:29:56.057Z,98
2017-05-13T08:30:56.082Z,97.8
2017-05-13T08:31:56.104Z,97.33
2017-05-13T08:32:56.127Z,96.94
2017-05-13T08:33:56.152Z,95.98
2017-05-13T08:34:56.176Z,96.37
2017-05-13T08:35:56.201Z,96.37
2017-05-13T08:36:56.225Z,96.37
2017-05-13T08:37:56.250Z,96.56
2017-05-13T08:38:55.968Z,96.08
2017-05-13T08:39:56.297Z,96.08
2017-05-13T08:41:10.937Z,96.37
2017-05-13T08:41:56.041Z,96.56
2017-05-13T08:42:56.372Z,96.56
2017-05-13T08:43:56.393Z,96.37
2017-05-13T08:44:56.117Z,96.89
2017-05-13T08:45:56.442Z,95.46
2017-05-13T08:46:56.465Z,96.22
2017-05-13T08:47:56.489Z,96.03
2017-05-13T08:48:56.515Z,95.98
2017-05-13T08:49:56.538Z,96.47
2017-05-13T08:50:56.562Z,97.52
2017-05-13T08:51:56.586Z,97.8
2017-05-13T08:53:56.636Z,97.52
2017-05-13T08:54:56.662Z,98
2017-05-13T08:56:11.300Z,98.1
2017-05-13T08:56:56.712Z,97.9
2017-05-13T08:57:56.733Z,98.47
2017-05-13T08:58:56.757Z,98.38
2017-05-13T08:59:56.780Z,98.57
2017-05-13T09:00:56.807Z,99.34
2017-05-13T09:01:56.826Z,99.43
2017-05-13T09:02:56.852Z,99.91
2017-05-13T09:03:56.876Z,99.99
2017-05-13T09:04:56.900Z,99.99
2017-05-13T09:06:56.645Z,99.99
2017-05-13T09:09:57.020Z,99.99
2017-05-13T09:10:57.047Z,99.99
2017-05-13T09:11:57.068Z,99.99
2017-05-13T09:12:56.791Z,99.99
2017-05-13T09:13:57.116Z,99.99
2017-05-13T09:14:57.141Z,99.99
2017-05-13T09:15:57.165Z,99.99
2017-05-13T09:16:57.192Z,99.99
2017-05-13T09:17:56.911Z,99.99
2017-05-13T09:18:56.936Z,99.99
2017-05-13T09:19:57.260Z,99.99
2017-05-13T09:20:57.284Z,99.99
2017-05-13T09:21:57.009Z,99.99
2017-05-13T09:22:57.372Z,99.99
2017-05-13T09:23:57.359Z,99.99
2017-05-13T09:25:57.102Z,99.99
2017-05-13T09:26:57.428Z,99.99
2017-05-13T09:28:12.070Z,99.99
2017-05-13T09:28:57.478Z,99.99
2017-05-13T09:29:57.502Z,99.99
2017-05-13T09:30:57.525Z,99.99
2017-05-13T09:31:57.549Z,99.99
2017-05-13T09:32:57.578Z,99.99
2017-05-13T09:33:57.601Z,99.99
2017-05-13T09:34:57.621Z,99.99
2017-05-13T09:35:57.651Z,99.99
2017-05-13T09:36:57.367Z,99.99
2017-05-13T09:37:57.694Z,99.99
2017-05-13T09:38:57.414Z,99.99
2017-05-13T09:39:57.440Z,99.99
2017-05-13T09:40:57.766Z,99.99
2017-05-13T09:41:57.488Z,99.99
2017-05-13T09:42:57.512Z,99.99
2017-05-13T09:44:12.456Z,99.99
2017-05-13T09:44:57.865Z,99.99
2017-05-13T09:45:57.887Z,99.99
2017-05-13T09:46:57.916Z,99.99
2017-05-13T09:47:57.934Z,99.77
2017-05-13T09:48:57.965Z,99.99
2017-05-13T09:49:57.679Z,99.99
2017-05-13T09:50:57.704Z,99.91
2017-05-13T09:51:58.031Z,99.99
2017-05-13T09:52:57.753Z,99.99
2017-05-13T09:53:58.079Z,99.68
2017-05-13T09:54:58.104Z,99.96
2017-05-13T09:55:58.130Z,99.48
2017-05-13T09:56:58.154Z,99.77
2017-05-13T09:57:58.178Z,99.99
2017-05-13T09:58:57.898Z,99.99
2017-05-13T10:00:12.842Z,99.77
2017-05-13T10:00:57.949Z,99.96
2017-05-13T10:01:57.970Z,99.63
2017-05-13T10:02:58.298Z,99.24
2017-05-13T10:03:58.323Z,98.67
2017-05-13T10:04:58.346Z,98.05
2017-05-13T10:05:58.371Z,98.81
2017-05-13T10:06:58.400Z,98.48
2017-05-13T10:07:58.118Z,97.52
2017-05-13T10:08:58.445Z,97.61
2017-05-13T10:09:58.471Z,98.38
2017-05-13T10:10:58.499Z,97.52
2017-05-13T10:11:58.519Z,98.28
2017-05-13T10:12:58.544Z,97.66
2017-05-13T10:13:58.570Z,96.42
2017-05-13T10:14:58.591Z,95.75
2017-05-13T10:16:13.233Z,95.36
2017-05-13T10:16:58.337Z,95.75
2017-05-13T10:17:58.362Z,96.08
2017-05-13T10:18:58.387Z,95.26
2017-05-13T10:19:58.715Z,95.07
2017-05-13T10:20:58.437Z,95.26
2017-05-13T10:21:58.764Z,94.98
2017-05-13T10:22:58.789Z,95.17
2017-05-13T10:23:58.813Z,94.16
2017-05-13T10:24:58.838Z,94.16
2017-05-13T10:25:58.864Z,93.1
2017-05-13T10:27:58.913Z,92.86
2017-05-13T10:28:58.941Z,92.19
2017-05-13T10:29:58.965Z,91.08
2017-05-13T10:31:13.605Z,90.22
2017-05-13T10:31:59.012Z,89.54
2017-05-13T10:32:59.038Z,89.64
2017-05-13T10:33:59.065Z,88.68
2017-05-13T10:34:59.087Z,88.59
2017-05-13T10:35:59.112Z,87.48
2017-05-13T10:36:59.138Z,88.68
2017-05-13T10:37:59.163Z,89.83
2017-05-13T10:38:59.188Z,89.74
2017-05-13T10:39:59.213Z,89.45
2017-05-13T10:40:59.238Z,89.69
2017-05-13T10:41:59.268Z,89.01
2017-05-13T10:44:59.338Z,87.19
2017-05-13T10:45:59.365Z,87.15
2017-05-13T10:46:59.391Z,86.9
2017-05-13T10:47:59.415Z,87.86
2017-05-13T10:48:59.136Z,87.96
2017-05-13T10:49:59.466Z,85.78
2017-05-13T10:50:59.492Z,85.69
2017-05-13T10:51:59.515Z,85.31
2017-05-13T10:52:59.238Z,84.34
2017-05-13T10:53:59.568Z,84.48
2017-05-13T10:54:59.591Z,83.52
2017-05-13T10:55:59.617Z,83.52
2017-05-13T10:56:59.642Z,83.08
2017-05-13T10:57:59.669Z,82.37
2017-05-13T11:00:59.749Z,82.56
2017-05-13T11:01:59.773Z,83.81
2017-05-13T11:03:14.417Z,82.46
2017-05-13T11:03:59.822Z,82.12
2017-05-13T11:04:59.849Z,81.63
2017-05-13T11:05:59.874Z,80.91
2017-05-13T11:06:59.900Z,81.29
2017-05-13T11:07:59.926Z,80.91
2017-05-13T11:08:59.952Z,80.04
2017-05-13T11:09:59.975Z,80.04
2017-05-13T11:11:00.001Z,80.1
2017-05-13T11:12:00.028Z,80.1
2017-05-13T11:13:00.053Z,80.38
2017-05-13T11:14:00.079Z,80.68
2017-05-13T11:15:00.106Z,81.21
2017-05-13T11:16:00.132Z,81.5
2017-05-13T11:17:00.157Z,81.4
2017-05-13T11:18:00.187Z,81.12
2017-05-13T11:19:14.825Z,82.75
2017-05-13T11:20:00.235Z,82.75
2017-05-13T11:21:00.272Z,82.46
2017-05-13T11:22:00.285Z,82.17
2017-05-13T11:23:00.311Z,82.27
2017-05-13T11:24:00.338Z,83.23
2017-05-13T11:25:00.361Z,83.72
2017-05-13T11:27:00.416Z,81.93
2017-05-13T11:29:00.468Z,80.19
2017-05-13T11:30:00.491Z,81.01
2017-05-13T11:31:00.562Z,80.68
2017-05-13T11:33:00.569Z,81.45
2017-05-13T11:34:00.594Z,81.45
2017-05-13T11:35:15.236Z,82.21
2017-05-13T11:36:00.645Z,81.63
2017-05-13T11:37:00.672Z,80.52
2017-05-13T11:38:00.697Z,80.43
2017-05-13T11:39:00.722Z,82.35
2017-05-13T11:40:00.748Z,80.62
2017-05-13T11:41:00.775Z,79.75
2017-05-13T11:42:00.801Z,80.37
2017-05-13T11:43:00.825Z,80.37
2017-05-13T11:44:00.853Z,80.27
2017-05-13T11:45:00.879Z,77.96
2017-05-13T11:46:00.904Z,77.76
2017-05-13T11:47:00.632Z,78.44
2017-05-13T11:48:00.957Z,77.96
2017-05-13T11:49:00.984Z,78.44
2017-05-13T11:50:01.011Z,78.44
2017-05-13T11:51:15.652Z,78.63
2017-05-13T11:52:01.060Z,78.83
2017-05-13T11:53:01.089Z,78.44
2017-05-13T11:54:01.112Z,79.69
2017-05-13T11:55:01.138Z,78.83
2017-05-13T11:56:01.166Z,79.79
2017-05-13T11:57:00.886Z,79.41
2017-05-13T11:58:01.220Z,78.34
2017-05-13T11:59:01.243Z,78.15
2017-05-13T12:00:01.271Z,78.34
2017-05-13T12:01:00.993Z,78.44
2017-05-13T12:02:01.321Z,78.63
2017-05-13T12:03:01.349Z,79.02
2017-05-13T12:04:01.374Z,79.85
2017-05-13T12:05:01.402Z,78.98
2017-05-13T12:06:16.044Z,80.04
2017-05-13T12:07:01.453Z,79.98
2017-05-13T12:08:01.477Z,78.92
2017-05-13T12:09:01.505Z,78.63
2017-05-13T12:10:01.531Z,78.83
2017-05-13T12:11:01.558Z,78.63
2017-05-13T12:12:01.582Z,77.76
2017-05-13T12:13:01.610Z,77.86
2017-05-13T12:14:01.635Z,78.34
2017-05-13T12:15:01.661Z,78.54
2017-05-13T12:16:01.687Z,78.63
2017-05-13T12:17:01.713Z,78.34
2017-05-13T12:18:01.744Z,77.67
2017-05-13T12:19:01.764Z,79.17
2017-05-13T12:20:01.793Z,78.4
2017-05-13T12:21:01.819Z,78.34
2017-05-13T12:22:01.844Z,77.86
2017-05-13T12:23:01.871Z,78.54
2017-05-13T12:24:01.596Z,78.54
2017-05-13T12:25:01.923Z,78.34
2017-05-13T12:26:01.951Z,76.9
2017-05-13T12:27:01.974Z,77.23
2017-05-13T12:28:02.003Z,76.45
2017-05-13T12:29:02.027Z,75.14
2017-05-13T12:30:02.055Z,75.05
2017-05-13T12:31:02.080Z,74.47
2017-05-13T12:32:02.105Z,74.72
2017-05-13T12:33:02.133Z,75.3
2017-05-13T12:35:02.185Z,76.23
2017-05-13T12:36:02.213Z,76.51
2017-05-13T12:37:02.237Z,78.44
2017-05-13T12:38:16.881Z,77.19
2017-05-13T12:39:02.291Z,75.3
2017-05-13T12:40:02.318Z,74.57
2017-05-13T12:41:02.342Z,74.08
2017-05-13T12:42:02.370Z,73.89
2017-05-13T12:43:02.397Z,74.08
2017-05-13T12:44:02.424Z,73.44
2017-05-13T12:45:02.448Z,73.06
2017-05-13T12:46:02.476Z,72.19
2017-05-13T12:47:02.501Z,72.86
2017-05-13T12:48:02.528Z,72.52
2017-05-13T12:49:02.557Z,72.32
2017-05-13T12:50:02.582Z,72.52
2017-05-13T12:51:02.609Z,71.64
2017-05-13T12:53:02.661Z,70.97
2017-05-13T12:54:17.307Z,71.36
2017-05-13T12:55:02.718Z,71.36
2017-05-13T12:56:02.743Z,71.06
2017-05-13T12:57:02.768Z,71.61
2017-05-13T12:58:02.493Z,72.28
2017-05-13T12:59:02.822Z,71.61
2017-05-13T13:00:02.850Z,73.35
2017-05-13T13:01:02.880Z,72.67
2017-05-13T13:02:02.904Z,72.54
2017-05-13T13:03:02.928Z,72.54
2017-05-13T13:04:02.957Z,72.58
2017-05-13T13:05:02.984Z,72.58
2017-05-13T13:08:03.065Z,72.09
2017-05-13T13:09:03.091Z,71.61
2017-05-13T13:10:17.735Z,71.51
2017-05-13T13:11:03.145Z,71.12
2017-05-13T13:12:03.172Z,71.42
2017-05-13T13:13:03.198Z,72.48
2017-05-13T13:14:03.225Z,71.61
2017-05-13T13:15:03.250Z,72.77
2017-05-13T13:16:03.279Z,72.58
2017-05-13T13:17:03.306Z,71.61
2017-05-13T13:18:03.332Z,70.26
2017-05-13T13:19:03.057Z,70.54
2017-05-13T13:20:03.387Z,71.51
2017-05-13T13:21:03.413Z,70.54
2017-05-13T13:23:03.467Z,70.39
2017-05-13T13:24:03.498Z,70.58
2017-05-13T13:25:03.519Z,69.32
2017-05-13T13:26:18.164Z,69.52
2017-05-13T13:27:03.573Z,69.13
2017-05-13T13:28:03.611Z,68.46
2017-05-13T13:29:03.626Z,68.36
2017-05-13T13:30:03.654Z,68.65
2017-05-13T13:31:03.681Z,68.84
2017-05-13T13:32:03.707Z,68.94
2017-05-13T13:33:03.735Z,68.46
2017-05-13T13:34:03.763Z,67.91
2017-05-13T13:35:03.792Z,67.43
2017-05-13T13:36:03.816Z,67.04
2017-05-13T13:37:03.844Z,67.82
2017-05-13T13:38:03.873Z,67.43
2017-05-13T13:39:03.899Z,67.33
2017-05-13T13:40:03.925Z,67.43
2017-05-13T13:41:18.571Z,66.56